createdAt,value
2017-07-27T00:00:03.695Z,12.20
2017-07-27T00:02:31.223Z,12.10
2017-07-27T00:04:58.763Z,12.00
2017-07-27T00:07:26.278Z,12.00
2017-07-27T00:09:53.819Z,12.00
2017-07-27T00:12:21.343Z,11.90
2017-07-27T00:14:48.911Z,12.00
2017-07-27T00:17:16.430Z,12.00
2017-07-27T00:19:43.957Z,12.00
2017-07-27T00:22:11.502Z,12.00
2017-07-27T00:24:39.013Z,12.00
2017-07-27T00:27:06.550Z,12.00
2017-07-27T00:29:34.074Z,11.90
2017-07-27T00:32:01.641Z,11.90
2017-07-27T00:34:29.158Z,11.90
2017-07-27T00:36:56.685Z,11.90
2017-07-27T00:39:24.228Z,11.80
2017-07-27T00:41:52.514Z,11.70
2017-07-27T00:44:20.824Z,11.70
2017-07-27T00:46:48.351Z,11.70
2017-07-27T00:49:15.895Z,11.80
2017-07-27T00:51:44.189Z,11.90
2017-07-27T00:54:11.731Z,11.80
2017-07-27T00:56:40.023Z,11.90
2017-07-27T00:59:07.539Z,11.90
2017-07-27T01:01:35.838Z,11.80
2017-07-27T01:04:03.353Z,11.80
2017-07-27T01:06:30.895Z,11.80
2017-07-27T01:08:58.414Z,11.80
2017-07-27T01:11:25.955Z,11.80
2017-07-27T01:13:53.474Z,11.70
2017-07-27T01:16:21.023Z,11.80
2017-07-27T01:18:48.546Z,11.70
2017-07-27T01:21:16.061Z,11.60
2017-07-27T01:23:44.370Z,11.60
2017-07-27T01:26:11.896Z,11.60
2017-07-27T01:28:40.210Z,11.80
2017-07-27T01:31:08.500Z,11.80
2017-07-27T01:33:36.048Z,11.80
2017-07-27T01:36:04.335Z,11.90
2017-07-27T01:38:31.855Z,11.80
2017-07-27T01:40:59.400Z,11.90
2017-07-27T01:43:26.915Z,11.90
2017-07-27T01:45:54.456Z,11.90
2017-07-27T01:48:21.974Z,11.90
2017-07-27T01:50:49.513Z,11.90
2017-07-27T01:53:17.028Z,11.90
2017-07-27T01:55:44.542Z,11.80
2017-07-27T01:58:12.083Z,11.90
2017-07-27T02:00:39.600Z,11.90
2017-07-27T02:03:07.142Z,11.80
2017-07-27T02:05:34.695Z,11.70
2017-07-27T02:08:03.014Z,11.80
2017-07-27T02:10:30.550Z,11.80
2017-07-27T02:12:58.077Z,11.80
2017-07-27T02:15:26.385Z,11.90
2017-07-27T02:17:53.898Z,11.80
2017-07-27T02:20:21.438Z,11.90
2017-07-27T02:22:49.732Z,11.90
2017-07-27T02:25:17.275Z,11.90
2017-07-27T02:27:45.550Z,11.90
2017-07-27T02:30:13.078Z,11.80
2017-07-27T02:32:40.616Z,11.80
2017-07-27T02:35:08.141Z,11.90
2017-07-27T02:37:36.457Z,11.80
2017-07-27T02:40:04.742Z,11.80
2017-07-27T02:42:32.278Z,11.80
2017-07-27T02:44:59.799Z,11.90
2017-07-27T02:47:27.319Z,11.80
2017-07-27T02:49:54.862Z,11.80
2017-07-27T02:52:23.239Z,11.80
2017-07-27T02:54:50.808Z,11.90
2017-07-27T02:57:18.335Z,11.90
2017-07-27T02:59:46.638Z,12.00
2017-07-27T03:02:14.163Z,12.00
2017-07-27T03:04:42.466Z,12.00
2017-07-27T03:07:10.765Z,12.00
2017-07-27T03:09:38.312Z,12.00
2017-07-27T03:12:05.829Z,12.00
2017-07-27T03:14:33.342Z,12.00
2017-07-27T03:17:01.649Z,12.00
2017-07-27T03:19:29.176Z,12.00
2017-07-27T03:21:56.719Z,12.00
2017-07-27T03:24:25.016Z,12.00
2017-07-27T03:26:52.563Z,11.90
2017-07-27T03:29:20.087Z,11.90
2017-07-27T03:31:47.626Z,12.00
2017-07-27T03:34:15.143Z,12.00
2017-07-27T03:36:42.666Z,11.90
2017-07-27T03:39:10.967Z,12.00
2017-07-27T03:41:38.481Z,12.00
2017-07-27T03:44:06.028Z,12.00
2017-07-27T03:46:33.552Z,12.10
2017-07-27T03:49:01.141Z,12.20
2017-07-27T03:51:28.653Z,12.20
2017-07-27T03:53:56.214Z,12.20
2017-07-27T03:56:24.489Z,12.30
2017-07-27T03:58:52.006Z,12.30
2017-07-27T04:01:19.546Z,12.30
2017-07-27T04:03:47.079Z,12.30
2017-07-27T04:06:15.387Z,12.40
2017-07-27T04:08:42.902Z,12.40
2017-07-27T04:11:10.441Z,12.40
2017-07-27T04:13:37.969Z,12.50
2017-07-27T04:16:05.510Z,12.50
2017-07-27T04:18:33.031Z,12.50
2017-07-27T04:21:00.558Z,12.50
2017-07-27T04:23:28.093Z,12.50
2017-07-27T04:25:55.612Z,12.60
2017-07-27T04:28:23.923Z,12.60
2017-07-27T04:30:51.443Z,12.60
2017-07-27T04:33:18.977Z,12.70
2017-07-27T04:35:47.257Z,12.70
2017-07-27T04:38:14.799Z,12.70
2017-07-27T04:40:42.315Z,12.80
2017-07-27T04:43:09.875Z,12.70
2017-07-27T04:45:37.389Z,12.80
2017-07-27T04:48:04.904Z,12.90
2017-07-27T04:50:32.442Z,12.90
2017-07-27T04:53:00.724Z,13.00
2017-07-27T04:55:28.265Z,13.00
2017-07-27T04:58:00.655Z,13.00
2017-07-27T05:00:28.966Z,13.20
2017-07-27T05:02:57.258Z,13.20
2017-07-27T05:05:24.794Z,13.20
2017-07-27T05:07:52.366Z,13.20
2017-07-27T05:10:19.885Z,13.30
2017-07-27T05:12:47.426Z,13.40
2017-07-27T05:15:14.951Z,13.40
2017-07-27T05:17:42.495Z,13.40
2017-07-27T05:20:10.013Z,13.50
2017-07-27T05:22:37.555Z,13.50
2017-07-27T05:25:05.081Z,13.60
2017-07-27T05:27:32.626Z,13.60
2017-07-27T05:30:00.142Z,13.70
2017-07-27T05:32:27.654Z,13.70
2017-07-27T05:34:55.195Z,13.70
2017-07-27T05:37:22.718Z,13.70
2017-07-27T05:39:50.265Z,13.70
2017-07-27T05:42:17.777Z,13.70
2017-07-27T05:44:45.315Z,13.80
2017-07-27T05:47:13.598Z,13.80
2017-07-27T05:49:41.150Z,13.90
2017-07-27T05:52:08.669Z,13.90
2017-07-27T05:54:36.191Z,13.90
2017-07-27T05:57:03.728Z,13.90
2017-07-27T05:59:31.247Z,14.00
2017-07-27T06:01:58.826Z,14.00
2017-07-27T06:04:26.349Z,14.00
2017-07-27T06:06:53.890Z,14.00
2017-07-27T06:09:22.178Z,14.00
2017-07-27T06:11:50.068Z,14.00
2017-07-27T06:14:17.600Z,14.00
2017-07-27T06:16:45.117Z,14.10
2017-07-27T06:19:12.668Z,14.10
2017-07-27T06:21:40.182Z,14.10
2017-07-27T06:24:07.732Z,14.20
2017-07-27T06:26:35.265Z,14.20
2017-07-27T06:29:02.813Z,14.30
2017-07-27T06:31:30.330Z,14.30
2017-07-27T06:33:57.912Z,14.40
2017-07-27T06:36:25.437Z,14.50
2017-07-27T06:38:52.966Z,14.60
2017-07-27T06:41:21.270Z,14.70
2017-07-27T06:43:48.786Z,14.70
2017-07-27T06:46:16.326Z,14.70
2017-07-27T06:48:43.847Z,14.70
2017-07-27T06:51:11.388Z,14.80
2017-07-27T06:53:38.915Z,14.70
2017-07-27T06:56:06.467Z,14.70
2017-07-27T06:58:33.982Z,14.70
2017-07-27T07:01:01.503Z,14.80
2017-07-27T07:03:29.048Z,14.70
2017-07-27T07:05:56.579Z,14.70
2017-07-27T07:08:24.119Z,14.70
2017-07-27T07:10:51.638Z,14.70
2017-07-27T07:13:20.008Z,14.70
2017-07-27T07:15:47.531Z,14.70
2017-07-27T07:18:15.096Z,14.70
2017-07-27T07:20:42.610Z,14.80
2017-07-27T07:23:10.137Z,14.80
2017-07-27T07:25:38.450Z,15.10
2017-07-27T07:28:05.977Z,15.00
2017-07-27T07:30:33.517Z,15.20
2017-07-27T07:33:01.034Z,15.40
2017-07-27T07:35:28.571Z,15.60
2017-07-27T07:37:56.085Z,15.80
2017-07-27T07:40:24.405Z,16.10
2017-07-27T07:42:51.926Z,16.10
2017-07-27T07:45:19.437Z,16.10
2017-07-27T07:47:47.744Z,15.90
2017-07-27T07:50:15.265Z,15.90
2017-07-27T07:52:42.805Z,15.90
2017-07-27T07:55:10.324Z,15.90
2017-07-27T07:57:37.872Z,15.90
2017-07-27T08:00:05.402Z,15.80
2017-07-27T08:02:33.734Z,15.90
2017-07-27T08:05:02.013Z,15.90
2017-07-27T08:07:29.530Z,15.90
2017-07-27T08:10:08.897Z,15.90
2017-07-27T08:12:37.185Z,16.10
2017-07-27T08:15:04.719Z,16.10
2017-07-27T08:17:32.235Z,16.30
2017-07-27T08:19:59.775Z,16.30
2017-07-27T08:22:27.301Z,16.40
2017-07-27T08:24:54.870Z,16.40
2017-07-27T08:27:22.382Z,16.40
2017-07-27T08:29:49.903Z,16.50
2017-07-27T08:32:17.447Z,16.50
2017-07-27T08:34:44.971Z,16.50
2017-07-27T08:37:13.270Z,16.50
2017-07-27T08:39:40.790Z,16.50
2017-07-27T08:42:08.327Z,16.40
2017-07-27T08:44:35.853Z,16.30
2017-07-27T08:47:03.421Z,16.40
2017-07-27T08:49:30.942Z,16.50
2017-07-27T08:51:58.461Z,16.80
2017-07-27T08:54:26.777Z,17.40
2017-07-27T08:56:54.294Z,17.30
2017-07-27T08:59:22.607Z,17.60
2017-07-27T09:01:50.123Z,17.60
2017-07-27T09:04:17.659Z,17.60
2017-07-27T09:06:45.182Z,17.50
2017-07-27T09:09:12.722Z,17.50
2017-07-27T09:11:40.234Z,17.70
2017-07-27T09:14:07.754Z,17.90
2017-07-27T09:16:35.290Z,18.10
2017-07-27T09:19:02.814Z,18.20
2017-07-27T09:21:30.355Z,18.40
2017-07-27T09:23:57.873Z,18.60
2017-07-27T09:26:25.406Z,18.50
2017-07-27T09:28:52.922Z,18.50
2017-07-27T09:31:20.467Z,18.50
2017-07-27T09:33:48.749Z,18.60
2017-07-27T09:36:16.271Z,18.60
2017-07-27T09:38:43.810Z,18.60
2017-07-27T09:41:11.329Z,18.60
2017-07-27T09:43:39.642Z,18.70
2017-07-27T09:46:07.158Z,18.70
2017-07-27T09:48:34.694Z,18.70
2017-07-27T09:51:02.313Z,18.60
2017-07-27T09:53:29.874Z,18.60
2017-07-27T09:55:57.396Z,18.70
2017-07-27T09:58:24.913Z,18.70
2017-07-27T10:00:52.450Z,18.60
2017-07-27T10:03:19.971Z,18.60
2017-07-27T10:05:47.559Z,18.50
2017-07-27T10:08:15.842Z,18.50
2017-07-27T10:10:43.376Z,18.50
2017-07-27T10:13:10.900Z,18.50
2017-07-27T10:15:38.462Z,18.50
2017-07-27T10:18:05.984Z,18.50
2017-07-27T10:20:33.493Z,18.90
2017-07-27T10:23:01.029Z,19.10
2017-07-27T10:25:28.539Z,19.30
2017-07-27T10:27:56.070Z,19.40
2017-07-27T10:30:23.594Z,19.60
2017-07-27T10:32:51.134Z,19.90
2017-07-27T10:35:18.650Z,20.20
2017-07-27T10:37:46.980Z,20.40
2017-07-27T10:40:14.499Z,20.30
2017-07-27T10:42:42.019Z,20.40
2017-07-27T10:45:10.323Z,20.50
2017-07-27T10:47:37.837Z,20.50
2017-07-27T10:50:05.374Z,20.50
2017-07-27T10:52:32.894Z,20.60
2017-07-27T10:55:00.433Z,20.60
2017-07-27T10:57:27.950Z,20.60
2017-07-27T10:59:55.489Z,20.50
2017-07-27T11:02:23.779Z,20.40
2017-07-27T11:04:52.057Z,20.20
2017-07-27T11:07:19.594Z,20.20
2017-07-27T11:09:47.113Z,20.00
2017-07-27T11:12:15.415Z,19.90
2017-07-27T11:14:42.936Z,19.90
2017-07-27T11:17:10.479Z,19.80
2017-07-27T11:19:38.014Z,19.60
2017-07-27T11:22:05.575Z,19.60
2017-07-27T11:24:33.090Z,19.70
2017-07-27T11:27:00.612Z,19.70
2017-07-27T11:29:28.923Z,20.00
2017-07-27T11:31:57.211Z,20.10
2017-07-27T11:34:24.749Z,20.10
2017-07-27T11:36:52.266Z,20.10
2017-07-27T11:39:19.798Z,20.20
2017-07-27T11:41:47.310Z,20.30
2017-07-27T11:44:14.874Z,20.50
2017-07-27T11:46:42.390Z,20.90
2017-07-27T11:49:09.915Z,21.10
2017-07-27T11:51:37.453Z,21.40
2017-07-27T11:54:04.971Z,22.00
2017-07-27T11:56:32.509Z,22.80
2017-07-27T11:59:00.789Z,23.60
2017-07-27T12:01:28.331Z,23.60
2017-07-27T12:03:55.857Z,23.40
2017-07-27T12:06:23.428Z,23.10
2017-07-27T12:08:50.939Z,22.90
2017-07-27T12:11:19.219Z,22.50
2017-07-27T12:13:47.527Z,22.70
2017-07-27T12:16:15.042Z,22.70
2017-07-27T12:18:42.578Z,23.10
2017-07-27T12:21:10.116Z,23.30
2017-07-27T12:23:37.659Z,23.10
2017-07-27T12:26:05.173Z,23.20
2017-07-27T12:28:33.483Z,23.90
2017-07-27T12:31:00.998Z,23.90
2017-07-27T12:33:29.278Z,24.60
2017-07-27T12:35:56.826Z,24.50
2017-07-27T12:38:25.107Z,24.70
2017-07-27T12:40:52.644Z,24.70
2017-07-27T12:43:20.170Z,24.80
2017-07-27T12:45:47.710Z,24.80
2017-07-27T12:48:15.230Z,24.60
2017-07-27T12:50:42.771Z,24.30
2017-07-27T12:53:10.289Z,23.80
2017-07-27T12:55:37.818Z,23.30
2017-07-27T12:58:05.362Z,23.10
2017-07-27T13:00:32.882Z,23.60
2017-07-27T13:03:00.419Z,23.90
2017-07-27T13:05:28.702Z,24.00
2017-07-27T13:07:57.006Z,23.80
2017-07-27T13:10:25.286Z,23.40
2017-07-27T13:12:52.824Z,23.40
2017-07-27T13:15:21.112Z,23.70
2017-07-27T13:17:48.629Z,23.70
2017-07-27T13:20:16.179Z,23.80
2017-07-27T13:22:43.702Z,23.90
2017-07-27T13:25:11.242Z,24.00
2017-07-27T13:27:38.762Z,24.00
2017-07-27T13:30:06.311Z,23.90
2017-07-27T13:32:34.598Z,23.90
2017-07-27T13:35:02.138Z,23.80
2017-07-27T13:37:29.663Z,23.90
2017-07-27T13:39:57.186Z,23.60
2017-07-27T13:42:24.725Z,23.10
2017-07-27T13:44:52.253Z,22.90
2017-07-27T13:47:19.793Z,22.90
2017-07-27T13:49:48.078Z,23.60
2017-07-27T13:52:15.618Z,23.60
2017-07-27T13:54:43.138Z,24.00
2017-07-27T13:57:10.678Z,24.10
2017-07-27T13:59:38.198Z,24.10
2017-07-27T14:02:05.719Z,24.10
2017-07-27T14:04:33.258Z,23.70
2017-07-27T14:07:00.774Z,23.30
2017-07-27T14:09:28.318Z,23.10
2017-07-27T14:11:55.838Z,23.20
2017-07-27T14:14:23.373Z,23.50
2017-07-27T14:16:50.889Z,23.50
2017-07-27T14:19:18.434Z,23.50
2017-07-27T14:21:46.724Z,23.30
2017-07-27T14:24:15.001Z,23.20
2017-07-27T14:26:42.537Z,23.20
2017-07-27T14:29:10.050Z,23.20
2017-07-27T14:31:37.590Z,23.20
2017-07-27T14:34:05.874Z,23.30
2017-07-27T14:36:33.423Z,23.30
2017-07-27T14:39:00.942Z,23.30
2017-07-27T14:41:28.485Z,23.30
2017-07-27T14:43:56.761Z,22.80
2017-07-27T14:46:24.283Z,22.80
2017-07-27T14:48:51.826Z,22.70
2017-07-27T14:51:19.354Z,22.60
2017-07-27T14:53:46.895Z,22.70
2017-07-27T14:56:14.420Z,22.70
2017-07-27T14:58:42.726Z,22.90
2017-07-27T15:01:10.252Z,22.90
2017-07-27T15:03:38.558Z,22.60
2017-07-27T15:06:06.079Z,22.50
2017-07-27T15:08:33.597Z,22.60
2017-07-27T15:11:01.907Z,22.50
2017-07-27T15:13:29.426Z,22.50
2017-07-27T15:15:56.959Z,22.60
2017-07-27T15:18:24.477Z,22.50
2017-07-27T15:20:52.782Z,22.40
2017-07-27T15:23:20.295Z,22.40
2017-07-27T15:25:48.603Z,22.40
2017-07-27T15:28:16.120Z,22.40
2017-07-27T15:30:43.647Z,22.40
2017-07-27T15:33:11.182Z,22.40
2017-07-27T15:35:38.701Z,22.40
2017-07-27T15:38:06.237Z,22.40
2017-07-27T15:40:33.770Z,22.30
2017-07-27T15:43:01.319Z,22.30
2017-07-27T15:45:29.594Z,22.40
2017-07-27T15:47:57.125Z,22.40
2017-07-27T15:50:24.645Z,22.30
2017-07-27T15:52:52.162Z,22.30
2017-07-27T15:55:20.475Z,22.30
2017-07-27T15:57:47.985Z,22.30
2017-07-27T16:00:15.522Z,22.40
2017-07-27T16:02:43.803Z,22.10
2017-07-27T16:05:11.347Z,22.10
2017-07-27T16:07:38.863Z,21.80
2017-07-27T16:10:06.410Z,21.50
2017-07-27T16:12:33.926Z,21.20
2017-07-27T16:15:02.211Z,20.90
2017-07-27T16:17:30.512Z,20.80
2017-07-27T16:19:58.810Z,20.80
2017-07-27T16:22:26.362Z,20.80
2017-07-27T16:24:53.886Z,20.80
2017-07-27T16:27:21.428Z,20.90
2017-07-27T16:29:49.719Z,21.10
2017-07-27T16:32:17.269Z,21.00
2017-07-27T16:34:45.553Z,21.10
2017-07-27T16:37:13.075Z,21.10
2017-07-27T16:39:40.621Z,21.00
2017-07-27T16:42:08.913Z,21.00
2017-07-27T16:44:36.457Z,21.00
2017-07-27T16:47:03.987Z,20.90
2017-07-27T16:49:31.528Z,20.80
2017-07-27T16:51:59.052Z,20.80
2017-07-27T16:54:26.587Z,20.80
2017-07-27T16:56:54.116Z,20.80
2017-07-27T16:59:21.639Z,20.70
2017-07-27T17:01:49.178Z,20.70
2017-07-27T17:04:16.697Z,20.50
2017-07-27T17:06:44.229Z,20.40
2017-07-27T17:09:12.518Z,20.20
2017-07-27T17:11:40.059Z,20.20
2017-07-27T17:14:07.587Z,20.10
2017-07-27T17:16:35.178Z,20.00
2017-07-27T17:19:02.725Z,19.90
2017-07-27T17:21:30.254Z,19.80
2017-07-27T17:23:57.790Z,19.70
2017-07-27T17:26:25.310Z,19.50
2017-07-27T17:28:53.617Z,19.20
2017-07-27T17:31:21.138Z,19.20
2017-07-27T17:33:48.682Z,19.00
2017-07-27T17:36:16.207Z,18.70
2017-07-27T17:38:43.757Z,18.40
2017-07-27T17:41:11.299Z,18.20
2017-07-27T17:43:38.813Z,18.00
2017-07-27T17:46:07.115Z,17.70
2017-07-27T17:48:34.629Z,17.70
2017-07-27T17:51:02.177Z,17.70
2017-07-27T17:53:29.690Z,17.70
2017-07-27T17:55:57.212Z,17.70
2017-07-27T17:58:25.524Z,17.80
2017-07-27T18:00:53.048Z,17.70
2017-07-27T18:03:20.586Z,17.70
2017-07-27T18:05:48.103Z,17.70
2017-07-27T18:08:16.409Z,17.70
2017-07-27T18:10:43.932Z,17.70
2017-07-27T18:13:11.452Z,17.70
2017-07-27T18:15:38.989Z,17.70
2017-07-27T18:18:07.283Z,17.50
2017-07-27T18:20:34.821Z,17.50
2017-07-27T18:23:02.335Z,17.60
2017-07-27T18:25:30.634Z,17.40
2017-07-27T18:27:58.155Z,17.40
2017-07-27T18:30:25.670Z,17.40
2017-07-27T18:32:53.212Z,17.40
2017-07-27T18:35:21.502Z,17.50
2017-07-27T18:37:49.042Z,17.50
2017-07-27T18:40:16.567Z,17.50
2017-07-27T18:42:44.103Z,17.60
2017-07-27T18:45:11.623Z,17.60
2017-07-27T18:47:39.138Z,17.50
2017-07-27T18:50:06.677Z,17.40
2017-07-27T18:52:34.957Z,17.40
2017-07-27T18:55:03.269Z,17.40
2017-07-27T18:57:30.781Z,17.40
2017-07-27T18:59:58.322Z,17.30
2017-07-27T19:02:25.834Z,17.20
2017-07-27T19:04:53.355Z,17.10
2017-07-27T19:07:20.895Z,17.10
2017-07-27T19:09:48.410Z,17.20
2017-07-27T19:12:15.942Z,17.20
2017-07-27T19:14:43.455Z,17.10
2017-07-27T19:17:11.014Z,17.10
2017-07-27T19:19:38.526Z,16.90
2017-07-27T19:22:06.046Z,16.80
2017-07-27T19:24:33.581Z,16.80
2017-07-27T19:27:01.867Z,17.00
2017-07-27T19:29:29.406Z,16.90
2017-07-27T19:31:56.927Z,17.00
2017-07-27T19:34:24.451Z,17.00
2017-07-27T19:36:52.755Z,17.00
2017-07-27T19:39:20.276Z,17.00
2017-07-27T19:41:48.586Z,17.00
2017-07-27T19:44:16.870Z,16.90
2017-07-27T19:46:45.169Z,16.80
2017-07-27T19:49:12.686Z,16.80
2017-07-27T19:51:40.244Z,16.70
2017-07-27T19:54:07.768Z,16.50
2017-07-27T19:56:35.283Z,16.60
2017-07-27T19:59:02.822Z,16.60
2017-07-27T20:01:30.341Z,16.60
2017-07-27T20:03:57.874Z,16.60
2017-07-27T20:06:25.393Z,16.60
2017-07-27T20:08:53.697Z,16.70
2017-07-27T20:11:21.211Z,16.60
2017-07-27T20:13:49.492Z,16.60
2017-07-27T20:16:17.035Z,16.60
2017-07-27T20:18:44.551Z,16.60
2017-07-27T20:21:12.083Z,16.60
2017-07-27T20:23:39.608Z,16.50
2017-07-27T20:26:07.155Z,16.50
2017-07-27T20:28:34.671Z,16.40
2017-07-27T20:31:02.205Z,16.40
2017-07-27T20:33:29.759Z,16.40
2017-07-27T20:35:57.274Z,16.40
2017-07-27T20:38:24.810Z,16.40
2017-07-27T20:40:52.334Z,16.40
2017-07-27T20:43:20.189Z,16.30
2017-07-27T20:45:48.479Z,16.20
2017-07-27T20:48:16.766Z,16.20
2017-07-27T20:50:44.297Z,16.20
2017-07-27T20:53:11.837Z,16.20
2017-07-27T20:55:39.354Z,16.20
2017-07-27T20:58:06.902Z,16.30
2017-07-27T21:00:34.435Z,16.30
2017-07-27T21:03:01.950Z,16.30
2017-07-27T21:05:29.483Z,16.30
2017-07-27T21:07:57.001Z,16.20
2017-07-27T21:10:24.536Z,16.20
2017-07-27T21:12:52.050Z,16.20
2017-07-27T21:15:19.587Z,16.20
2017-07-27T21:17:47.102Z,16.20
2017-07-27T21:20:14.638Z,16.20
2017-07-27T21:22:42.919Z,16.20
2017-07-27T21:25:10.456Z,16.20
2017-07-27T21:27:37.974Z,16.10
2017-07-27T21:30:05.505Z,16.10
2017-07-27T21:32:33.027Z,16.10
2017-07-27T21:35:01.314Z,16.20
2017-07-27T21:37:28.846Z,16.10
2017-07-27T21:39:57.130Z,16.10
2017-07-27T21:42:25.429Z,16.10
2017-07-27T21:44:52.946Z,16.00
2017-07-27T21:47:21.246Z,16.00
2017-07-27T21:49:48.762Z,15.90
2017-07-27T21:52:16.306Z,15.90
2017-07-27T21:54:44.591Z,16.00
2017-07-27T21:57:12.132Z,15.90
2017-07-27T21:59:39.646Z,16.00
2017-07-27T22:02:07.182Z,16.00
2017-07-27T22:04:35.467Z,15.90
2017-07-27T22:07:03.018Z,15.90
2017-07-27T22:09:30.534Z,15.90
2017-07-27T22:11:58.821Z,15.90
2017-07-27T22:14:26.357Z,15.90
2017-07-27T22:16:53.874Z,15.90
2017-07-27T22:19:21.414Z,16.00
2017-07-27T22:21:48.939Z,16.10
2017-07-27T22:24:16.478Z,16.10
2017-07-27T22:26:43.994Z,16.20
2017-07-27T22:29:11.536Z,16.20
2017-07-27T22:31:39.050Z,16.20
2017-07-27T22:34:06.587Z,16.30
2017-07-27T22:36:34.111Z,16.20
2017-07-27T22:39:01.626Z,16.20
2017-07-27T22:41:29.926Z,16.40
2017-07-27T22:43:57.443Z,16.40
2017-07-27T22:46:24.978Z,16.40
2017-07-27T22:48:52.494Z,16.40
2017-07-27T22:51:20.795Z,16.40
2017-07-27T22:53:48.310Z,16.40
2017-07-27T22:56:15.850Z,16.40
2017-07-27T22:58:44.135Z,16.40
2017-07-27T23:01:12.433Z,16.40
2017-07-27T23:03:39.945Z,16.40
2017-07-27T23:06:07.466Z,16.30
2017-07-27T23:08:35.769Z,16.30
2017-07-27T23:11:03.291Z,16.30
2017-07-27T23:13:31.591Z,16.20
2017-07-27T23:15:59.110Z,16.20
2017-07-27T23:18:26.647Z,16.20
2017-07-27T23:20:54.158Z,16.20
2017-07-27T23:23:21.693Z,16.20
2017-07-27T23:25:49.212Z,16.20
2017-07-27T23:28:16.750Z,16.20
2017-07-27T23:30:44.266Z,16.20
2017-07-27T23:33:12.563Z,16.20
2017-07-27T23:35:40.081Z,16.10
2017-07-27T23:38:07.602Z,16.10
2017-07-27T23:40:35.136Z,16.10
2017-07-27T23:43:02.650Z,16.10
2017-07-27T23:45:30.946Z,16.10
2017-07-27T23:47:58.458Z,16.00
2017-07-27T23:50:25.998Z,16.00
2017-07-27T23:52:53.518Z,15.90
2017-07-27T23:55:21.058Z,15.80
2017-07-27T23:57:48.574Z,15.80
